Time;durP1;ratioP1;P1;durP2;ratioP2;P2;SDS_P1;SDS_P2;PMS_P1;PMS_P2;Temp;Humidity;BMP_temperature;BMP_pressure;BME280_temperature;BME280_humidity;BME280_pressure;Samples;Min_cycle;Max_cycle;Signal;HPM_P1;HPM_P2
2023/12/22 00:00:12;;;;;;;4.82;1.15;;;7.70;90.10;;;;;;5045160;28;20553;-64
2023/12/22 00:02:39;;;;;;;4.45;1.10;;;7.70;90.20;;;;;;5042931;28;20064;-64
2023/12/22 00:05:06;;;;;;;4.50;0.93;;;7.80;90.30;;;;;;5042432;28;20044;-64
2023/12/22 00:07:32;;;;;;;2.35;1.20;;;7.70;90.30;;;;;;5048849;28;20539;-64
2023/12/22 00:10:05;;;;;;;5.18;0.95;;;7.80;90.40;;;;;;5046290;28;21782;-64
2023/12/22 00:12:33;;;;;;;4.78;1.05;;;7.80;90.40;;;;;;5023196;28;20455;-64
2023/12/22 00:15:00;;;;;;;3.58;0.80;;;7.90;90.50;;;;;;5040269;28;20037;-64
2023/12/22 00:17:29;;;;;;;3.92;0.82;;;7.90;90.50;;;;;;5048920;28;20037;-64
2023/12/22 00:19:58;;;;;;;3.17;1.15;;;7.90;90.50;;;;;;5039017;28;20128;-64
2023/12/22 00:22:26;;;;;;;7.80;1.50;;;7.90;90.50;;;;;;5022467;28;20488;-64
2023/12/22 00:24:52;;;;;;;6.70;1.17;;;8.00;90.60;;;;;;5046505;28;20049;-64
2023/12/22 00:27:23;;;;;;;4.50;1.23;;;8.00;90.60;;;;;;5038179;28;20045;-64
2023/12/22 00:29:53;;;;;;;4.72;1.23;;;8.00;90.50;;;;;;5039798;28;20162;-64
2023/12/22 00:32:19;;;;;;;6.80;1.55;;;8.10;90.50;;;;;;5037957;28;20053;-63
2023/12/22 00:34:48;;;;;;;7.47;1.38;;;8.10;90.40;;;;;;5045356;28;20727;-64
2023/12/22 00:37:15;;;;;;;10.45;2.42;;;8.10;90.40;;;;;;5041812;28;20052;-64
2023/12/22 00:39:42;;;;;;;3.00;1.30;;;8.20;90.40;;;;;;5040895;28;20099;-64
2023/12/22 00:42:10;;;;;;;7.10;1.58;;;8.20;90.50;;;;;;5037491;28;20048;-64
2023/12/22 00:44:37;;;;;;;4.75;1.35;;;8.30;90.50;;;;;;5048862;28;20510;-64
2023/12/22 00:47:04;;;;;;;4.95;1.23;;;8.30;90.50;;;;;;5038574;28;20037;-63
2023/12/22 00:49:30;;;;;;;6.93;1.33;;;8.30;90.50;;;;;;5039298;28;20116;-63
2023/12/22 00:51:57;;;;;;;5.30;1.90;;;8.30;90.50;;;;;;5039245;28;20041;-64
2023/12/22 00:54:25;;;;;;;7.50;1.50;;;8.40;90.50;;;;;;5045188;28;20484;-63
2023/12/22 00:56:57;;;;;;;6.95;1.60;;;8.40;90.50;;;;;;5042772;28;20041;-64
2023/12/22 00:59:26;;;;;;;11.20;2.08;;;8.40;90.50;;;;;;5041273;28;20114;-64
2023/12/22 01:01:52;;;;;;;5.45;1.52;;;8.40;90.50;;;;;;5039342;28;20496;-64
2023/12/22 01:04:19;;;;;;;7.38;1.88;;;8.50;90.50;;;;;;5041714;28;20043;-64
2023/12/22 01:06:47;;;;;;;7.28;2.28;;;8.50;90.50;;;;;;5038971;28;20114;-63
2023/12/22 01:09:14;;;;;;;13.15;2.03;;;8.50;90.40;;;;;;5044111;28;20499;-64
2023/12/22 01:11:47;;;;;;;8.73;2.20;;;8.60;90.50;;;;;;5040352;28;20069;-64
2023/12/22 01:14:14;;;;;;;8.75;1.50;;;8.60;90.40;;;;;;5042759;28;20041;-63
2023/12/22 01:16:43;;;;;;;11.30;2.17;;;8.60;90.40;;;;;;5047068;28;20127;-64
2023/12/22 01:19:10;;;;;;;7.03;1.85;;;8.60;90.40;;;;;;5038265;28;20124;-63
2023/12/22 01:21:40;;;;;;;5.55;1.73;;;8.60;90.40;;;;;;5041218;28;20049;-64
2023/12/22 01:24:07;;;;;;;10.98;1.50;;;8.60;90.30;;;;;;5043930;28;20037;-64
2023/12/22 01:26:34;;;;;;;8.68;1.98;;;8.60;90.00;;;;;;5044472;28;20120;-64
2023/12/22 01:29:05;;;;;;;5.03;1.83;;;8.60;89.90;;;;;;5039517;28;20044;-64
2023/12/22 01:31:31;;;;;;;9.23;2.15;;;8.60;89.60;;;;;;5039892;28;20554;-63
2023/12/22 01:34:01;;;;;;;5.78;1.95;;;8.60;89.40;;;;;;5039833;28;20053;-64
2023/12/22 01:36:28;;;;;;;9.38;1.88;;;8.60;89.40;;;;;;5039392;28;20514;-63
2023/12/22 01:39:00;;;;;;;6.25;1.65;;;8.50;89.50;;;;;;5040032;28;20045;-64
2023/12/22 01:41:27;;;;;;;7.40;1.45;;;8.50;89.30;;;;;;5044748;28;20045;-64
2023/12/22 01:43:56;;;;;;;8.27;1.80;;;8.50;89.00;;;;;;5040872;28;20129;-64
2023/12/22 01:46:24;;;;;;;7.43;1.90;;;8.50;88.80;;;;;;5039152;28;20053;-64
2023/12/22 01:49:00;;;;;;;9.35;1.95;;;8.40;88.70;;;;;;5042773;28;20162;-63
2023/12/22 01:51:32;;;;;;;6.60;2.05;;;8.40;88.80;;;;;;5041992;28;20061;-63
2023/12/22 01:54:04;;;;;;;5.47;1.73;;;8.40;89.30;;;;;;5043204;28;20049;-63
2023/12/22 01:56:31;;;;;;;7.43;1.90;;;8.40;89.80;;;;;;5044826;28;20653;-63
2023/12/22 01:59:02;;;;;;;12.80;2.40;;;8.40;90.00;;;;;;5039111;28;20044;-63
2023/12/22 02:01:38;;;;;;;9.70;2.03;;;8.40;90.10;;;;;;5037240;28;20040;-64
2023/12/22 02:04:07;;;;;;;11.70;2.15;;;8.40;90.10;;;;;;5021996;28;20061;-64
2023/12/22 02:06:36;;;;;;;9.02;1.77;;;8.40;90.10;;;;;;5042093;28;20091;-63
2023/12/22 02:09:06;;;;;;;10.25;2.83;;;8.40;90.00;;;;;;5047604;28;20112;-63
2023/12/22 02:11:33;;;;;;;10.60;2.92;;;8.50;89.80;;;;;;5041129;28;20041;-63
2023/12/22 02:14:00;;;;;;;8.68;2.17;;;8.40;89.60;;;;;;5041332;28;20100;-64
2023/12/22 02:16:39;;;;;;;12.65;3.20;;;8.40;89.50;;;;;;5037473;28;20041;-63
2023/12/22 02:19:55;;;;;;;7.25;2.47;;;8.40;89.50;;;;;;5048947;28;20086;-64
2023/12/22 02:22:22;;;;;;;12.63;2.50;;;8.40;89.60;;;;;;5041408;28;20403;-63
2023/12/22 02:24:49;;;;;;;11.70;2.97;;;8.40;89.40;;;;;;5049197;28;20045;-63
2023/12/22 02:27:33;;;;;;;8.32;2.72;;;8.40;89.40;;;;;;5046369;28;20064;-65
2023/12/22 02:30:13;;;;;;;10.38;2.38;;;8.40;89.40;;;;;;5027760;28;20141;-64
2023/12/22 02:32:43;;;;;;;8.57;2.45;;;8.50;89.50;;;;;;5046782;28;20045;-61
2023/12/22 02:35:20;;;;;;;10.93;2.45;;;8.50;89.50;;;;;;5048588;28;20049;-61
2023/12/22 02:37:56;;;;;;;9.77;2.38;;;8.50;89.50;;;;;;5046280;28;20044;-61
2023/12/22 02:40:25;;;;;;;;;;;8.50;89.80;;;;;;5047054;28;20154;-61
2023/12/22 02:42:55;;;;;;;7.05;1.75;;;8.50;90.00;;;;;;5047562;28;20441;-61
2023/12/22 02:45:26;;;;;;;9.05;2.00;;;8.50;90.00;;;;;;5046026;28;20041;-61
2023/12/22 02:47:54;;;;;;;10.07;2.80;;;8.50;90.20;;;;;;5046650;28;20037;-60
2023/12/22 02:50:22;;;;;;;12.05;3.22;;;8.50;90.30;;;;;;5046302;28;20040;-61
2023/12/22 02:52:54;;;;;;;9.23;2.97;;;8.60;90.50;;;;;;5046890;28;20191;-61
2023/12/22 02:55:23;;;;;;;11.57;3.50;;;8.60;90.50;;;;;;5047572;28;20061;-61
2023/12/22 02:57:50;;;;;;;13.70;2.80;;;8.60;90.50;;;;;;5044943;28;20069;-61
2023/12/22 03:00:18;;;;;;;12.30;3.10;;;8.70;90.50;;;;;;5041219;28;20453;-60
2023/12/22 03:02:45;;;;;;;10.38;2.78;;;8.70;90.40;;;;;;5042613;28;20060;-61
2023/12/22 03:05:14;;;;;;;12.32;3.45;;;8.80;90.40;;;;;;5042007;28;20511;-61
2023/12/22 03:07:41;;;;;;;11.30;1.92;;;8.80;90.40;;;;;;5050324;28;20057;-61
2023/12/22 03:10:10;;;;;;;11.43;3.33;;;8.80;90.30;;;;;;5028245;28;20037;-61
2023/12/22 03:12:37;;;;;;;11.07;3.35;;;8.90;90.30;;;;;;5046132;28;20124;-61
2023/12/22 03:15:04;;;;;;;11.00;2.80;;;8.90;90.30;;;;;;5046725;28;20411;-61
2023/12/22 03:17:31;;;;;;;13.15;4.15;;;8.90;90.20;;;;;;5049334;28;20056;-61
2023/12/22 03:20:00;;;;;;;13.35;2.58;;;9.00;90.10;;;;;;5046464;28;20052;-61
2023/12/22 03:22:34;;;;;;;9.60;2.72;;;9.00;89.60;;;;;;5044975;28;20072;-60
2023/12/22 03:25:00;;;;;;;7.45;2.42;;;9.00;89.20;;;;;;5048654;28;20073;-60
2023/12/22 03:27:27;;;;;;;12.45;3.05;;;9.00;88.60;;;;;;5047384;28;20069;-62
2023/12/22 03:30:03;;;;;;;11.32;2.80;;;9.00;88.10;;;;;;5046342;28;20403;-61
2023/12/22 03:32:34;;;;;;;7.90;1.85;;;9.00;87.80;;;;;;5047373;28;20055;-60
2023/12/22 03:35:01;;;;;;;6.88;1.85;;;8.90;87.60;;;;;;5046222;28;20499;-61
2023/12/22 03:37:35;;;;;;;13.10;2.97;;;8.90;87.60;;;;;;5046896;28;20045;-61
2023/12/22 03:40:04;;;;;;;10.25;2.22;;;8.90;87.50;;;;;;5046673;28;20033;-60
2023/12/22 03:42:34;;;;;;;7.13;2.20;;;8.80;87.50;;;;;;5047859;28;20037;-60
2023/12/22 03:45:01;;;;;;;7.13;2.25;;;8.80;87.60;;;;;;5048569;28;20116;-61
2023/12/22 03:47:27;;;;;;;8.00;2.10;;;8.70;87.80;;;;;;5047242;28;20488;-61
2023/12/22 03:49:56;;;;;;;10.52;2.10;;;8.70;88.00;;;;;;5045565;28;20048;-61
2023/12/22 03:52:26;;;;;;;12.48;2.38;;;8.70;88.20;;;;;;5049078;28;20048;-61
2023/12/22 03:54:53;;;;;;;12.60;3.10;;;8.70;88.30;;;;;;5047304;28;20055;-61
2023/12/22 03:57:21;;;;;;;17.80;3.53;;;8.70;88.40;;;;;;5047356;28;20065;-61
2023/12/22 03:59:48;;;;;;;13.25;2.70;;;8.60;88.50;;;;;;5039431;28;20495;-61
2023/12/22 04:02:15;;;;;;;13.70;3.40;;;8.60;88.60;;;;;;5041052;28;20115;-60
2023/12/22 04:04:51;;;;;;;13.82;3.25;;;8.70;88.80;;;;;;5042667;28;20122;-61
2023/12/22 04:07:23;;;;;;;9.98;2.60;;;8.70;88.90;;;;;;5044848;28;20052;-61
2023/12/22 04:09:50;;;;;;;8.23;3.30;;;8.70;89.10;;;;;;5048824;28;20041;-63
2023/12/22 04:12:20;;;;;;;9.18;3.05;;;8.70;89.40;;;;;;5045380;28;20515;-63
2023/12/22 04:14:46;;;;;;;10.48;2.38;;;8.70;89.60;;;;;;5041651;28;20534;-62
2023/12/22 04:17:21;;;;;;;6.32;2.47;;;8.70;89.60;;;;;;5046707;28;20052;-62
2023/12/22 04:19:53;;;;;;;9.00;2.72;;;8.70;89.60;;;;;;5047262;28;20090;-62
2023/12/22 04:22:23;;;;;;;6.38;2.85;;;8.80;89.50;;;;;;5046877;28;20045;-62
2023/12/22 04:24:50;;;;;;;8.98;2.80;;;8.80;89.50;;;;;;5046394;28;20041;-62
2023/12/22 04:27:16;;;;;;;14.07;3.20;;;8.80;89.50;;;;;;5047821;28;20479;-62
2023/12/22 04:29:43;;;;;;;11.70;2.55;;;8.80;89.50;;;;;;5029201;28;20110;-62
2023/12/22 04:32:13;;;;;;;11.65;2.85;;;8.80;89.70;;;;;;5046203;28;20037;-62
2023/12/22 04:34:44;;;;;;;;;;;8.90;90.00;;;;;;5045183;28;20043;-63
2023/12/22 04:37:11;;;;;;;10.50;2.75;;;8.90;90.10;;;;;;5046180;28;19932;-63
2023/12/22 04:39:40;;;;;;;10.25;2.90;;;9.00;90.00;;;;;;5046716;28;20080;-62
2023/12/22 04:42:07;;;;;;;12.63;2.90;;;9.00;90.10;;;;;;5043959;28;20516;-62
2023/12/22 04:44:34;;;;;;;10.07;2.42;;;9.00;90.20;;;;;;5048820;28;20120;-63
2023/12/22 04:47:03;;;;;;;11.80;2.20;;;9.10;90.20;;;;;;5047059;28;20111;-63
2023/12/22 04:49:33;;;;;;;16.02;3.10;;;9.10;90.30;;;;;;5047650;28;20591;-63
2023/12/22 04:52:01;;;;;;;10.02;3.30;;;9.20;90.30;;;;;;5046303;28;20068;-63
2023/12/22 04:54:31;;;;;;;15.02;3.17;;;9.20;90.30;;;;;;5044829;28;20159;-63
2023/12/22 04:57:01;;;;;;;8.68;2.30;;;9.30;90.30;;;;;;5048853;28;20071;-63
2023/12/22 04:59:30;;;;;;;12.15;2.80;;;9.30;90.30;;;;;;5044921;28;20124;-63
2023/12/22 05:01:58;;;;;;;12.90;3.38;;;9.40;90.20;;;;;;5021022;28;20049;-63
2023/12/22 05:04:27;;;;;;;12.02;2.58;;;9.50;90.20;;;;;;5040439;28;20052;-63
2023/12/22 05:06:55;;;;;;;19.13;3.72;;;9.50;90.20;;;;;;5038744;28;20452;-63
2023/12/22 05:09:28;;;;;;;10.25;3.08;;;9.60;90.20;;;;;;5030722;28;20120;-63
2023/12/22 05:11:58;;;;;;;12.85;3.80;;;9.60;90.10;;;;;;5048595;28;20040;-63
2023/12/22 05:14:27;;;;;;;13.07;3.78;;;9.70;90.00;;;;;;5046433;28;20061;-62
2023/12/22 05:16:57;;;;;;;14.27;3.45;;;9.70;89.90;;;;;;5043454;28;20040;-62
2023/12/22 05:19:23;;;;;;;8.35;2.70;;;9.80;89.80;;;;;;5047655;28;20048;-63
2023/12/22 05:21:55;;;;;;;17.42;4.10;;;9.80;89.60;;;;;;5048717;28;20044;-62
2023/12/22 05:24:25;;;;;;;10.73;3.10;;;9.80;89.40;;;;;;5043173;28;20033;-63
2023/12/22 05:26:54;;;;;;;10.25;3.42;;;9.90;89.10;;;;;;5049172;28;20091;-62
2023/12/22 05:29:28;;;;;;;14.40;3.97;;;10.00;88.90;;;;;;5046943;28;20045;-62
2023/12/22 05:31:55;;;;;;;11.65;3.10;;;10.00;88.60;;;;;;5045617;28;20415;-63
2023/12/22 05:34:24;;;;;;;13.25;3.13;;;10.00;88.30;;;;;;5048574;28;20048;-63
2023/12/22 05:36:56;;;;;;;16.92;3.78;;;10.00;88.30;;;;;;5047860;28;20044;-62
2023/12/22 05:39:23;;;;;;;10.88;2.63;;;10.00;88.20;;;;;;5047714;28;20458;-62
2023/12/22 05:41:52;;;;;;;10.60;3.05;;;10.00;88.10;;;;;;5046412;28;20037;-62
2023/12/22 05:44:22;;;;;;;7.72;2.58;;;10.10;88.20;;;;;;5048039;28;20510;-62
2023/12/22 05:46:49;;;;;;;12.52;3.38;;;10.10;88.10;;;;;;5048362;28;20061;-62
2023/12/22 05:49:28;;;;;;;9.48;2.78;;;10.10;87.90;;;;;;5044046;28;20545;-62
2023/12/22 05:51:57;;;;;;;13.48;3.65;;;10.10;87.80;;;;;;5049499;28;20079;-62
2023/12/22 05:54:26;;;;;;;13.88;3.83;;;10.10;87.70;;;;;;5046461;28;20103;-62
2023/12/22 05:56:56;;;;;;;7.32;2.70;;;10.10;87.60;;;;;;5053187;28;20044;-62
2023/12/22 05:59:26;;;;;;;7.22;2.22;;;10.10;87.80;;;;;;5047874;28;20094;-61
2023/12/22 06:01:54;;;;;;;9.20;3.42;;;10.10;87.70;;;;;;5044970;28;20068;-62
2023/12/22 06:04:27;;;;;;;8.70;2.53;;;10.10;87.70;;;;;;5044437;28;20037;-61
2023/12/22 06:06:54;;;;;;;11.77;3.55;;;10.10;87.50;;;;;;5049253;28;20049;-62
2023/12/22 06:09:21;;;;;;;9.07;3.10;;;10.10;87.60;;;;;;5052755;28;20565;-62
2023/12/22 06:11:54;;;;;;;14.55;2.95;;;10.10;87.60;;;;;;5053061;28;20128;-64
2023/12/22 06:14:25;;;;;;;11.50;2.85;;;10.10;87.10;;;;;;5048015;28;20080;-64
2023/12/22 06:16:53;;;;;;;6.63;2.28;;;10.10;86.70;;;;;;5046678;28;20045;-66
2023/12/22 06:19:21;;;;;;;8.00;1.80;;;10.00;83.60;;;;;;5032340;28;20045;-67
2023/12/22 06:21:59;;;;;;;4.38;1.40;;;9.90;83.00;;;;;;5049676;28;20037;-67
2023/12/22 06:24:27;;;;;;;4.22;1.33;;;9.70;83.70;;;;;;5044891;28;20069;-67
2023/12/22 06:26:56;;;;;;;5.82;1.45;;;9.50;84.40;;;;;;5052711;28;20069;-66
2023/12/22 06:29:23;;;;;;;6.13;1.70;;;9.40;85.30;;;;;;5035848;28;20045;-65
2023/12/22 06:31:57;;;;;;;7.28;2.35;;;9.30;86.40;;;;;;5047805;28;20576;-65
2023/12/22 06:34:25;;;;;;;11.10;3.65;;;9.20;87.30;;;;;;5047029;28;20083;-65
2023/12/22 06:36:54;;;;;;;13.70;3.63;;;9.20;88.40;;;;;;5032823;28;20495;-65
2023/12/22 06:39:21;;;;;;;12.32;3.30;;;9.10;89.20;;;;;;5033301;28;20124;-64
2023/12/22 06:41:51;;;;;;;12.77;3.88;;;9.20;89.90;;;;;;5044440;28;20523;-64
2023/12/22 06:44:20;;;;;;;12.98;3.85;;;9.20;90.20;;;;;;5034927;28;20527;-64
2023/12/22 06:46:47;;;;;;;17.42;4.70;;;9.20;90.30;;;;;;5032860;28;20045;-64
2023/12/22 06:49:14;;;;;;;19.33;4.90;;;9.20;90.50;;;;;;5034167;28;20053;-64
2023/12/22 06:51:41;;;;;;;14.60;3.97;;;9.30;90.60;;;;;;5041831;28;20050;-64
2023/12/22 06:54:08;;;;;;;18.85;4.00;;;9.30;90.60;;;;;;5042309;28;20048;-63
2023/12/22 06:56:40;;;;;;;20.07;4.50;;;9.40;90.60;;;;;;5037744;28;20509;-64
2023/12/22 06:59:09;;;;;;;17.02;3.83;;;9.50;90.60;;;;;;5045817;28;20399;-64
2023/12/22 07:01:36;;;;;;;19.40;5.03;;;9.50;90.60;;;;;;5042614;28;20403;-64
2023/12/22 07:04:06;;;;;;;17.13;4.43;;;9.50;90.60;;;;;;5043966;28;20130;-64
2023/12/22 07:06:35;;;;;;;18.35;4.30;;;9.60;90.60;;;;;;5042725;28;20116;-63
2023/12/22 07:09:15;;;;;;;17.45;4.57;;;9.70;90.60;;;;;;5039888;28;20052;-64
2023/12/22 07:11:47;;;;;;;16.33;4.53;;;9.70;90.60;;;;;;5035958;28;20049;-64
2023/12/22 07:14:15;;;;;;;24.25;5.05;;;9.70;90.50;;;;;;5034034;28;20420;-63
2023/12/22 07:16:45;;;;;;;18.60;4.65;;;9.70;90.50;;;;;;5045454;28;20068;-64
2023/12/22 07:19:14;;;;;;;18.83;5.47;;;9.70;90.40;;;;;;5044692;28;20079;-63
2023/12/22 07:21:44;;;;;;;23.05;5.55;;;9.80;90.40;;;;;;5035002;28;20087;-64
2023/12/22 07:24:16;;;;;;;18.92;5.28;;;9.80;90.50;;;;;;5042908;28;20045;-64
2023/12/22 07:26:44;;;;;;;21.95;5.60;;;9.80;90.40;;;;;;5045439;28;20495;-64
2023/12/22 07:29:16;;;;;;;20.52;5.78;;;9.80;90.40;;;;;;5043788;28;20076;-64
2023/12/22 07:31:45;;;;;;;21.77;5.22;;;9.80;90.40;;;;;;5043857;28;20443;-64
2023/12/22 07:34:13;;;;;;;26.23;6.28;;;9.90;90.40;;;;;;5042855;28;20049;-64
2023/12/22 07:36:40;;;;;;;20.85;5.68;;;9.90;90.40;;;;;;5038769;28;20045;-64
2023/12/22 07:39:18;;;;;;;20.70;4.90;;;9.90;90.40;;;;;;5034099;28;20075;-65
2023/12/22 07:41:48;;;;;;;21.40;5.22;;;10.00;90.40;;;;;;5037521;28;20049;-64
2023/12/22 07:44:20;;;;;;;21.15;6.00;;;10.00;90.40;;;;;;5037288;28;20041;-64
2023/12/22 07:46:58;;;;;;;23.55;5.65;;;10.00;90.40;;;;;;5034498;28;20410;-64
2023/12/22 07:49:27;;;;;;;20.67;4.18;;;10.00;90.40;;;;;;5035165;28;20134;-64
2023/12/22 07:51:57;;;;;;;19.80;5.93;;;10.00;90.40;;;;;;5042481;28;20047;-64
2023/12/22 07:54:23;;;;;;;22.58;5.50;;;10.00;90.30;;;;;;5049150;28;20099;-64
2023/12/22 07:56:58;;;;;;;27.80;6.35;;;10.00;90.30;;;;;;5048403;28;20045;-64
2023/12/22 07:59:24;;;;;;;22.17;6.60;;;10.10;90.30;;;;;;5041517;28;20038;-64
2023/12/22 08:01:58;;;;;;;15.20;5.57;;;10.10;90.30;;;;;;5034071;28;20479;-64
2023/12/22 08:04:25;;;;;;;30.65;6.55;;;10.10;90.30;;;;;;5035316;28;20056;-64
2023/12/22 08:06:54;;;;;;;25.67;7.03;;;10.10;90.30;;;;;;5039376;28;20147;-64
2023/12/22 08:09:26;;;;;;;22.50;6.13;;;10.10;90.30;;;;;;5044118;28;20048;-64
2023/12/22 08:11:56;;;;;;;20.35;5.40;;;10.10;90.30;;;;;;5041346;28;20120;-64
2023/12/22 08:14:24;;;;;;;21.73;5.65;;;10.10;90.30;;;;;;5035101;28;20550;-64
2023/12/22 08:16:51;;;;;;;23.65;6.10;;;10.10;90.30;;;;;;5043030;28;20044;-64
2023/12/22 08:19:17;;;;;;;24.30;6.82;;;10.20;90.30;;;;;;5044829;28;20052;-64
2023/12/22 08:21:50;;;;;;;21.05;6.07;;;10.20;90.40;;;;;;5033630;28;20568;-64
2023/12/22 08:24:20;;;;;;;15.90;5.28;;;10.20;90.40;;;;;;5043418;28;20091;-64
2023/12/22 08:26:50;;;;;;;29.45;7.40;;;10.20;90.40;;;;;;5038206;28;20127;-64
2023/12/22 08:29:21;;;;;;;22.70;5.60;;;10.20;90.40;;;;;;5034445;28;20116;-64
2023/12/22 08:31:55;;;;;;;18.10;5.55;;;10.30;90.50;;;;;;5040584;28;20423;-64
2023/12/22 08:34:23;;;;;;;22.45;6.25;;;10.30;90.50;;;;;;5044080;28;20064;-64
2023/12/22 08:36:52;;;;;;;22.48;5.82;;;10.30;90.50;;;;;;5038127;28;20448;-64
2023/12/22 08:39:21;;;;;;;13.98;5.05;;;10.30;90.50;;;;;;5034528;28;20523;-64
2023/12/22 08:41:50;;;;;;;23.08;6.40;;;10.30;90.50;;;;;;5035711;28;20583;-64
2023/12/22 08:44:17;;;;;;;17.85;5.38;;;10.30;90.50;;;;;;5037348;28;20037;-64
2023/12/22 08:46:44;;;;;;;25.25;6.47;;;10.40;90.50;;;;;;5040475;28;20521;-64
2023/12/22 08:49:11;;;;;;;19.10;4.85;;;10.40;90.60;;;;;;5034976;28;20050;-64
2023/12/22 08:51:41;;;;;;;17.23;6.32;;;10.50;90.60;;;;;;5037246;28;20103;-65
2023/12/22 08:54:11;;;;;;;20.92;5.60;;;10.50;90.60;;;;;;5048626;28;20037;-64
2023/12/22 08:56:43;;;;;;;20.92;5.47;;;10.50;90.60;;;;;;5040160;28;20514;-64
2023/12/22 08:59:10;;;;;;;21.83;6.63;;;10.60;90.70;;;;;;5040530;28;20562;-64
2023/12/22 09:01:36;;;;;;;20.02;5.82;;;10.60;90.60;;;;;;5040345;28;20103;-64
2023/12/22 09:04:05;;;;;;;19.38;6.05;;;10.60;90.60;;;;;;5042299;28;20061;-64
2023/12/22 09:06:35;;;;;;;19.15;6.45;;;10.70;90.60;;;;;;5040163;28;20077;-64
2023/12/22 09:09:07;;;;;;;21.20;5.90;;;10.70;90.50;;;;;;5046127;28;20553;-64
2023/12/22 09:11:34;;;;;;;19.73;5.97;;;10.70;90.50;;;;;;5038397;28;20064;-65
2023/12/22 09:14:07;;;;;;;24.13;6.10;;;10.80;90.50;;;;;;5034694;28;20085;-64
2023/12/22 09:16:42;;;;;;;19.65;6.00;;;10.80;90.40;;;;;;5044054;28;20091;-64
2023/12/22 09:19:09;;;;;;;;;;;10.80;90.40;;;;;;5038353;28;20446;-64
2023/12/22 09:21:36;;;;;;;21.20;5.32;;;10.90;90.50;;;;;;5042168;28;19928;-65
2023/12/22 09:24:02;;;;;;;16.95;5.55;;;10.90;90.30;;;;;;5041137;28;20112;-64
2023/12/22 09:26:33;;;;;;;18.25;4.75;;;10.80;90.30;;;;;;5041399;28;20069;-65
2023/12/22 09:29:00;;;;;;;18.70;5.60;;;10.90;90.40;;;;;;5017274;28;20103;-64
2023/12/22 09:31:29;;;;;;;17.85;4.78;;;10.90;90.40;;;;;;5042397;28;20431;-64
2023/12/22 09:33:58;;;;;;;16.25;5.07;;;10.90;90.30;;;;;;5042919;28;20462;-64
2023/12/22 09:36:35;;;;;;;17.50;4.43;;;10.90;90.30;;;;;;5044367;28;20045;-64
2023/12/22 09:39:04;;;;;;;14.35;4.85;;;11.00;90.40;;;;;;5034982;28;20066;-64
2023/12/22 09:41:36;;;;;;;13.23;4.53;;;11.00;90.30;;;;;;5036741;28;20049;-64
2023/12/22 09:44:08;;;;;;;12.50;3.78;;;11.00;90.30;;;;;;5043389;28;20454;-64
2023/12/22 09:46:43;;;;;;;8.52;4.00;;;11.00;90.20;;;;;;5037919;28;20052;-65
2023/12/22 09:49:10;;;;;;;10.88;4.13;;;11.10;90.30;;;;;;5023166;28;20136;-64
2023/12/22 09:51:40;;;;;;;14.73;3.13;;;11.10;90.30;;;;;;5044724;28;20072;-64
2023/12/22 09:54:09;;;;;;;9.45;2.80;;;11.10;90.30;;;;;;5042239;28;20584;-64
2023/12/22 09:56:42;;;;;;;11.10;3.35;;;11.10;90.40;;;;;;5042357;28;20041;-64
2023/12/22 09:59:17;;;;;;;8.35;2.72;;;11.10;90.40;;;;;;5041036;28;20041;-65
2023/12/22 10:01:45;;;;;;;7.80;3.45;;;11.10;90.40;;;;;;5041681;28;20050;-64
2023/12/22 10:04:14;;;;;;;9.50;3.42;;;11.20;90.50;;;;;;5041448;28;20069;-64
2023/12/22 10:06:43;;;;;;;10.70;3.83;;;11.20;90.50;;;;;;5039216;28;20044;-65
2023/12/22 10:09:14;;;;;;;8.98;3.75;;;11.20;90.40;;;;;;5040141;28;20072;-65
2023/12/22 10:11:43;;;;;;;10.60;4.80;;;11.20;90.40;;;;;;5038768;28;20041;-65
2023/12/22 10:14:11;;;;;;;6.18;4.22;;;11.20;90.30;;;;;;5036107;28;20073;-65
2023/12/22 10:16:41;;;;;;;8.77;4.25;;;11.20;90.30;;;;;;5039527;28;20037;-65
2023/12/22 10:19:09;;;;;;;8.60;3.85;;;11.30;90.40;;;;;;5041398;28;20033;-64
2023/12/22 10:21:36;;;;;;;7.90;3.42;;;11.30;90.40;;;;;;5043580;28;20060;-65
2023/12/22 10:24:05;;;;;;;7.55;4.05;;;11.30;90.40;;;;;;5041548;28;20045;-64
2023/12/22 10:26:33;;;;;;;8.68;3.65;;;11.30;90.50;;;;;;5042394;28;20049;-64
2023/12/22 10:29:03;;;;;;;8.77;3.40;;;11.30;90.60;;;;;;5036759;28;20049;-65
2023/12/22 10:31:47;;;;;;;7.88;3.50;;;11.30;90.60;;;;;;5037848;28;20052;-64
2023/12/22 10:34:17;;;;;;;7.38;3.00;;;11.40;90.70;;;;;;5041327;28;20049;-64
2023/12/22 10:36:51;;;;;;;8.38;3.30;;;11.40;90.70;;;;;;5043955;28;20693;-64
2023/12/22 10:39:26;;;;;;;6.38;2.88;;;11.40;90.80;;;;;;5037287;28;20075;-64
2023/12/22 10:41:55;;;;;;;6.25;2.80;;;11.50;90.80;;;;;;5042130;28;20067;-64
2023/12/22 10:44:29;;;;;;;4.90;2.90;;;11.50;90.80;;;;;;5051246;28;20041;-65
2023/12/22 10:47:00;;;;;;;4.50;2.30;;;11.50;90.90;;;;;;5041794;28;20048;-64
2023/12/22 10:49:29;;;;;;;2.92;2.60;;;11.60;90.80;;;;;;5045948;28;20127;-65
2023/12/22 10:52:00;;;;;;;5.28;2.90;;;11.60;90.80;;;;;;5041444;28;20053;-64
2023/12/22 10:54:31;;;;;;;6.05;2.33;;;11.60;90.80;;;;;;5048849;28;20051;-65
2023/12/22 10:57:02;;;;;;;4.25;2.80;;;11.60;90.80;;;;;;5046499;28;20095;-66
2023/12/22 10:59:30;;;;;;;3.05;2.30;;;11.70;90.80;;;;;;5043499;28;20045;-64
2023/12/22 11:02:01;;;;;;;;;;;11.70;90.80;;;;;;5043473;28;20157;-65
2023/12/22 11:04:36;;;;;;;4.35;1.85;;;11.80;90.90;;;;;;5044700;28;19921;-64
2023/12/22 11:07:04;;;;;;;;;;;11.80;90.60;;;;;;5045095;28;20551;-64
2023/12/22 11:09:34;;;;;;;3.53;1.95;;;11.90;90.80;;;;;;5043755;28;20406;-65
2023/12/22 11:12:04;;;;;;;2.15;1.55;;;11.90;90.50;;;;;;5041564;28;20048;-65
2023/12/22 11:14:34;;;;;;;3.00;1.50;;;11.90;90.60;;;;;;5043907;28;20656;-64
2023/12/22 11:17:06;;;;;;;3.95;1.73;;;11.90;90.60;;;;;;5047755;28;20514;-65
2023/12/22 11:19:37;;;;;;;;;;;11.90;90.60;;;;;;5047784;28;20488;-65
2023/12/22 11:22:07;;;;;;;1.30;0.93;;;12.00;90.60;;;;;;5040617;28;20015;-65
2023/12/22 11:24:36;;;;;;;2.35;1.10;;;12.00;90.50;;;;;;5032056;28;20041;-65
2023/12/22 11:27:06;;;;;;;4.88;1.33;;;12.00;90.50;;;;;;5045790;28;20091;-65
2023/12/22 11:29:37;;;;;;;3.47;1.00;;;12.10;90.50;;;;;;5042615;28;20049;-65
2023/12/22 11:32:07;;;;;;;4.43;1.75;;;12.10;90.50;;;;;;5044747;28;20110;-65
2023/12/22 11:34:38;;;;;;;2.90;1.52;;;12.10;90.40;;;;;;5046116;28;20456;-65
2023/12/22 11:37:09;;;;;;;1.92;1.10;;;12.10;90.30;;;;;;5041970;28;20049;-65
2023/12/22 11:39:43;;;;;;;2.17;1.20;;;12.10;90.20;;;;;;5043436;28;20056;-64
2023/12/22 11:42:23;;;;;;;3.42;1.05;;;12.20;90.10;;;;;;5045156;28;20087;-65
2023/12/22 11:44:58;;;;;;;1.77;1.23;;;12.20;90.00;;;;;;5046030;28;20103;-65
2023/12/22 11:47:27;;;;;;;;;;;12.20;90.00;;;;;;5046159;28;20053;-64
2023/12/22 11:49:55;;;;;;;5.13;0.98;;;12.20;90.30;;;;;;5016738;28;19966;-65
2023/12/22 11:52:29;;;;;;;4.95;1.85;;;12.20;89.70;;;;;;5046740;28;20109;-64
2023/12/22 11:54:59;;;;;;;4.18;1.10;;;12.20;90.00;;;;;;5045211;28;20521;-64
2023/12/22 11:57:34;;;;;;;4.28;1.20;;;12.10;90.00;;;;;;5047348;28;20778;-65
2023/12/22 12:00:10;;;;;;;4.07;1.10;;;12.10;90.00;;;;;;5041388;28;20033;-64
2023/12/22 12:02:41;;;;;;;2.80;1.25;;;12.10;90.00;;;;;;5043646;28;20115;-65
2023/12/22 12:05:12;;;;;;;2.53;1.00;;;12.10;90.10;;;;;;5040777;28;20052;-65
2023/12/22 12:07:44;;;;;;;4.30;1.42;;;12.10;90.20;;;;;;5044946;28;20561;-65
2023/12/22 12:10:49;;;;;;;2.50;1.30;;;12.10;90.20;;;;;;5044244;28;20492;-65
2023/12/22 12:13:24;;;;;;;4.30;1.30;;;12.10;90.20;;;;;;5041184;28;20065;-65
2023/12/22 12:15:52;;;;;;;2.95;1.00;;;12.10;90.20;;;;;;5044408;28;20384;-65
2023/12/22 12:18:26;;;;;;;3.95;1.10;;;12.10;90.30;;;;;;5026696;28;20133;-65
2023/12/22 12:20:53;;;;;;;2.33;1.35;;;12.20;90.30;;;;;;5047647;28;20110;-66
2023/12/22 12:23:26;;;;;;;4.90;1.50;;;12.20;90.30;;;;;;5040322;28;20083;-65
2023/12/22 12:25:56;;;;;;;2.67;1.35;;;12.20;90.20;;;;;;5051288;28;20517;-65
2023/12/22 12:28:31;;;;;;;3.35;1.42;;;12.20;90.10;;;;;;5030512;28;20036;-65
2023/12/22 12:31:04;;;;;;;1.25;0.75;;;12.20;90.10;;;;;;5042208;28;21838;-65
2023/12/22 12:33:34;;;;;;;4.80;1.20;;;12.30;90.10;;;;;;5051207;28;20536;-65
2023/12/22 12:36:05;;;;;;;6.10;1.10;;;12.20;90.00;;;;;;5042991;28;20411;-64
2023/12/22 12:39:07;;;;;;;3.15;1.25;;;12.30;90.00;;;;;;5043789;28;20052;-65
2023/12/22 12:41:39;;;;;;;2.67;1.48;;;12.30;90.00;;;;;;5045929;28;20553;-65
2023/12/22 12:44:11;;;;;;;4.57;1.30;;;12.30;90.00;;;;;;5042970;28;20041;-65
2023/12/22 12:46:44;;;;;;;1.85;1.02;;;12.30;90.00;;;;;;5043947;28;20125;-65
2023/12/22 12:49:20;;;;;;;4.25;1.25;;;12.30;90.00;;;;;;5043012;28;20056;-65
2023/12/22 12:51:50;;;;;;;4.07;1.20;;;12.30;90.00;;;;;;5047808;28;20132;-64
2023/12/22 12:54:20;;;;;;;5.57;1.05;;;12.40;90.00;;;;;;5027715;28;20162;-64
2023/12/22 12:56:52;;;;;;;1.92;1.10;;;12.40;90.00;;;;;;5046323;28;20120;-65
2023/12/22 12:59:19;;;;;;;4.93;1.05;;;12.40;90.00;;;;;;5040730;28;20072;-65
2023/12/22 13:01:47;;;;;;;5.63;1.75;;;12.40;90.00;;;;;;5036817;28;20037;-64